sensor_id;sensor_type;location;lat;lon;timestamp;temperature;humidity
4635;DHT22;2330;48.158;11.816;2023-04-25T00:01:27;6.40;98.50
4635;DHT22;2330;48.158;11.816;2023-04-25T00:03:54;6.40;98.50
4635;DHT22;2330;48.158;11.816;2023-04-25T00:06:22;6.40;98.50
4635;DHT22;2330;48.158;11.816;2023-04-25T00:08:53;6.40;98.50
4635;DHT22;2330;48.158;11.816;2023-04-25T00:11:20;6.50;98.50
4635;DHT22;2330;48.158;11.816;2023-04-25T00:13:47;6.50;98.50
4635;DHT22;2330;48.158;11.816;2023-04-25T00:16:16;6.60;98.50
4635;DHT22;2330;48.158;11.816;2023-04-25T00:18:44;6.60;98.50
4635;DHT22;2330;48.158;11.816;2023-04-25T00:21:12;6.60;98.50
4635;DHT22;2330;48.158;11.816;2023-04-25T00:23:39;6.60;98.50
4635;DHT22;2330;48.158;11.816;2023-04-25T00:26:06;6.60;98.50
4635;DHT22;2330;48.158;11.816;2023-04-25T00:28:32;6.60;98.50
4635;DHT22;2330;48.158;11.816;2023-04-25T00:30:59;6.40;98.50
4635;DHT22;2330;48.158;11.816;2023-04-25T00:33:26;6.50;98.50
4635;DHT22;2330;48.158;11.816;2023-04-25T00:35:53;6.40;98.50
4635;DHT22;2330;48.158;11.816;2023-04-25T00:38:20;6.50;98.50
4635;DHT22;2330;48.158;11.816;2023-04-25T00:40:46;6.60;98.50
4635;DHT22;2330;48.158;11.816;2023-04-25T00:43:13;6.60;98.50
4635;DHT22;2330;48.158;11.816;2023-04-25T00:45:40;6.70;98.50
4635;DHT22;2330;48.158;11.816;2023-04-25T00:48:09;6.70;98.50
4635;DHT22;2330;48.158;11.816;2023-04-25T00:50:36;6.80;98.50
4635;DHT22;2330;48.158;11.816;2023-04-25T00:53:03;6.80;98.50
4635;DHT22;2330;48.158;11.816;2023-04-25T00:55:30;6.80;98.50
4635;DHT22;2330;48.158;11.816;2023-04-25T00:57:58;6.90;98.50
4635;DHT22;2330;48.158;11.816;2023-04-25T01:00:25;6.90;98.50
4635;DHT22;2330;48.158;11.816;2023-04-25T01:02:52;7.00;98.50
4635;DHT22;2330;48.158;11.816;2023-04-25T01:05:19;7.00;98.50
4635;DHT22;2330;48.158;11.816;2023-04-25T01:07:46;7.00;98.50
4635;DHT22;2330;48.158;11.816;2023-04-25T01:10:13;7.00;98.50
4635;DHT22;2330;48.158;11.816;2023-04-25T01:12:40;7.00;98.50
4635;DHT22;2330;48.158;11.816;2023-04-25T01:15:07;6.90;98.50
4635;DHT22;2330;48.158;11.816;2023-04-25T01:17:35;6.90;98.50
4635;DHT22;2330;48.158;11.816;2023-04-25T01:20:04;6.70;98.50
4635;DHT22;2330;48.158;11.816;2023-04-25T01:22:32;6.70;98.50
4635;DHT22;2330;48.158;11.816;2023-04-25T01:24:59;6.80;98.50
4635;DHT22;2330;48.158;11.816;2023-04-25T01:27:27;6.70;98.50
4635;DHT22;2330;48.158;11.816;2023-04-25T01:29:54;6.60;98.50
4635;DHT22;2330;48.158;11.816;2023-04-25T01:32:23;6.60;98.50
4635;DHT22;2330;48.158;11.816;2023-04-25T01:34:50;6.60;98.50
4635;DHT22;2330;48.158;11.816;2023-04-25T01:37:17;6.70;98.50
4635;DHT22;2330;48.158;11.816;2023-04-25T01:39:44;6.80;98.50
4635;DHT22;2330;48.158;11.816;2023-04-25T01:42:12;6.80;98.50
4635;DHT22;2330;48.158;11.816;2023-04-25T01:44:39;6.80;98.50
4635;DHT22;2330;48.158;11.816;2023-04-25T01:47:06;6.90;98.50
4635;DHT22;2330;48.158;11.816;2023-04-25T01:49:32;6.90;98.50
4635;DHT22;2330;48.158;11.816;2023-04-25T01:51:59;6.90;98.50
4635;DHT22;2330;48.158;11.816;2023-04-25T01:54:26;7.00;98.50
4635;DHT22;2330;48.158;11.816;2023-04-25T01:56:53;7.00;98.50
4635;DHT22;2330;48.158;11.816;2023-04-25T01:59:19;7.00;98.50
4635;DHT22;2330;48.158;11.816;2023-04-25T02:01:48;7.00;98.50
4635;DHT22;2330;48.158;11.816;2023-04-25T02:04:15;6.90;98.50
4635;DHT22;2330;48.158;11.816;2023-04-25T02:06:42;6.80;98.50
4635;DHT22;2330;48.158;11.816;2023-04-25T02:09:08;6.70;98.50
4635;DHT22;2330;48.158;11.816;2023-04-25T02:11:35;6.70;98.50
4635;DHT22;2330;48.158;11.816;2023-04-25T02:14:02;6.60;98.50
4635;DHT22;2330;48.158;11.816;2023-04-25T02:16:28;6.50;98.50
4635;DHT22;2330;48.158;11.816;2023-04-25T02:18:57;6.50;98.50
4635;DHT22;2330;48.158;11.816;2023-04-25T02:21:24;6.50;98.50
4635;DHT22;2330;48.158;11.816;2023-04-25T02:23:50;6.40;98.50
4635;DHT22;2330;48.158;11.816;2023-04-25T02:26:19;6.30;98.50
4635;DHT22;2330;48.158;11.816;2023-04-25T02:28:46;6.20;98.50
4635;DHT22;2330;48.158;11.816;2023-04-25T02:31:12;6.30;98.50
4635;DHT22;2330;48.158;11.816;2023-04-25T02:33:39;6.30;98.50
4635;DHT22;2330;48.158;11.816;2023-04-25T02:36:06;6.30;98.50
4635;DHT22;2330;48.158;11.816;2023-04-25T02:38:33;6.30;98.50
4635;DHT22;2330;48.158;11.816;2023-04-25T02:41:00;6.30;98.50
4635;DHT22;2330;48.158;11.816;2023-04-25T02:43:27;6.10;98.50
4635;DHT22;2330;48.158;11.816;2023-04-25T02:45:54;6.00;98.50
4635;DHT22;2330;48.158;11.816;2023-04-25T02:48:20;5.90;98.50
4635;DHT22;2330;48.158;11.816;2023-04-25T02:50:47;5.90;98.50
4635;DHT22;2330;48.158;11.816;2023-04-25T02:53:14;5.90;98.50
4635;DHT22;2330;48.158;11.816;2023-04-25T02:55:41;5.90;98.50
4635;DHT22;2330;48.158;11.816;2023-04-25T02:58:08;5.90;98.50
4635;DHT22;2330;48.158;11.816;2023-04-25T03:00:34;5.90;98.50
4635;DHT22;2330;48.158;11.816;2023-04-25T03:03:01;6.00;98.50
4635;DHT22;2330;48.158;11.816;2023-04-25T03:05:28;5.90;98.50
4635;DHT22;2330;48.158;11.816;2023-04-25T03:07:55;5.80;98.50
4635;DHT22;2330;48.158;11.816;2023-04-25T03:10:21;5.90;98.50
4635;DHT22;2330;48.158;11.816;2023-04-25T03:12:48;5.90;98.50
4635;DHT22;2330;48.158;11.816;2023-04-25T03:15:15;5.90;98.50
4635;DHT22;2330;48.158;11.816;2023-04-25T03:17:43;6.00;98.50
4635;DHT22;2330;48.158;11.816;2023-04-25T03:20:10;6.10;98.50
4635;DHT22;2330;48.158;11.816;2023-04-25T03:22:37;6.20;98.50
4635;DHT22;2330;48.158;11.816;2023-04-25T03:25:04;6.30;98.50
4635;DHT22;2330;48.158;11.816;2023-04-25T03:27:31;6.40;98.50
4635;DHT22;2330;48.158;11.816;2023-04-25T03:29:58;6.50;98.50
4635;DHT22;2330;48.158;11.816;2023-04-25T03:32:24;6.60;98.50
4635;DHT22;2330;48.158;11.816;2023-04-25T03:34:51;6.60;98.50
4635;DHT22;2330;48.158;11.816;2023-04-25T03:37:18;6.70;98.50
4635;DHT22;2330;48.158;11.816;2023-04-25T03:39:45;6.70;98.50
4635;DHT22;2330;48.158;11.816;2023-04-25T03:42:11;6.80;98.50
4635;DHT22;2330;48.158;11.816;2023-04-25T03:44:38;6.80;98.50
4635;DHT22;2330;48.158;11.816;2023-04-25T03:47:05;6.80;98.50
4635;DHT22;2330;48.158;11.816;2023-04-25T03:49:33;6.70;98.50
4635;DHT22;2330;48.158;11.816;2023-04-25T03:52:01;6.70;98.50
4635;DHT22;2330;48.158;11.816;2023-04-25T03:54:28;6.70;98.50
4635;DHT22;2330;48.158;11.816;2023-04-25T03:56:54;6.70;98.50
4635;DHT22;2330;48.158;11.816;2023-04-25T03:59:21;6.70;98.50
4635;DHT22;2330;48.158;11.816;2023-04-25T04:01:48;6.70;98.50
4635;DHT22;2330;48.158;11.816;2023-04-25T04:04:14;6.60;98.50
4635;DHT22;2330;48.158;11.816;2023-04-25T04:06:41;6.60;98.50
4635;DHT22;2330;48.158;11.816;2023-04-25T04:09:08;6.50;98.50
4635;DHT22;2330;48.158;11.816;2023-04-25T04:11:38;6.50;98.50
4635;DHT22;2330;48.158;11.816;2023-04-25T04:14:06;6.40;98.50
4635;DHT22;2330;48.158;11.816;2023-04-25T04:16:32;6.40;98.50
4635;DHT22;2330;48.158;11.816;2023-04-25T04:19:00;6.40;98.50
4635;DHT22;2330;48.158;11.816;2023-04-25T04:21:27;6.30;98.50
4635;DHT22;2330;48.158;11.816;2023-04-25T04:23:53;6.30;98.50
4635;DHT22;2330;48.158;11.816;2023-04-25T04:26:21;6.30;98.50
4635;DHT22;2330;48.158;11.816;2023-04-25T04:28:50;6.30;98.50
4635;DHT22;2330;48.158;11.816;2023-04-25T04:31:18;6.30;98.50
4635;DHT22;2330;48.158;11.816;2023-04-25T04:33:46;6.30;98.50
4635;DHT22;2330;48.158;11.816;2023-04-25T04:36:13;6.30;98.50
4635;DHT22;2330;48.158;11.816;2023-04-25T04:38:39;6.30;98.50
4635;DHT22;2330;48.158;11.816;2023-04-25T04:41:09;6.30;98.50
4635;DHT22;2330;48.158;11.816;2023-04-25T04:43:36;6.30;98.50
4635;DHT22;2330;48.158;11.816;2023-04-25T04:46:03;6.30;98.50
4635;DHT22;2330;48.158;11.816;2023-04-25T04:48:33;6.40;98.50
4635;DHT22;2330;48.158;11.816;2023-04-25T04:51:01;6.50;98.50
4635;DHT22;2330;48.158;11.816;2023-04-25T04:53:27;6.50;98.50
4635;DHT22;2330;48.158;11.816;2023-04-25T04:55:54;6.50;98.50
4635;DHT22;2330;48.158;11.816;2023-04-25T04:58:21;6.50;98.50
4635;DHT22;2330;48.158;11.816;2023-04-25T05:00:48;6.50;98.50
4635;DHT22;2330;48.158;11.816;2023-04-25T05:03:15;6.50;98.50
4635;DHT22;2330;48.158;11.816;2023-04-25T05:05:42;6.40;98.50
4635;DHT22;2330;48.158;11.816;2023-04-25T05:08:09;6.40;98.50
4635;DHT22;2330;48.158;11.816;2023-04-25T05:10:36;6.40;98.50
4635;DHT22;2330;48.158;11.816;2023-04-25T05:13:02;6.50;98.50
4635;DHT22;2330;48.158;11.816;2023-04-25T05:15:29;6.50;98.50
4635;DHT22;2330;48.158;11.816;2023-04-25T05:17:56;6.50;98.50
4635;DHT22;2330;48.158;11.816;2023-04-25T05:20:23;6.60;98.50
4635;DHT22;2330;48.158;11.816;2023-04-25T05:22:50;6.60;98.50
4635;DHT22;2330;48.158;11.816;2023-04-25T05:25:16;6.60;98.50
4635;DHT22;2330;48.158;11.816;2023-04-25T05:27:43;6.70;98.50
4635;DHT22;2330;48.158;11.816;2023-04-25T05:30:10;6.70;98.50
4635;DHT22;2330;48.158;11.816;2023-04-25T05:32:37;6.70;98.50
4635;DHT22;2330;48.158;11.816;2023-04-25T05:35:04;6.70;98.50
4635;DHT22;2330;48.158;11.816;2023-04-25T05:37:33;6.70;98.50
4635;DHT22;2330;48.158;11.816;2023-04-25T05:40:00;6.70;98.50
4635;DHT22;2330;48.158;11.816;2023-04-25T05:42:26;6.80;98.50
4635;DHT22;2330;48.158;11.816;2023-04-25T05:44:53;6.80;98.50
4635;DHT22;2330;48.158;11.816;2023-04-25T05:47:20;6.80;98.50
4635;DHT22;2330;48.158;11.816;2023-04-25T05:49:47;6.80;98.50
4635;DHT22;2330;48.158;11.816;2023-04-25T05:52:13;6.90;98.50
4635;DHT22;2330;48.158;11.816;2023-04-25T05:54:41;6.90;98.50
4635;DHT22;2330;48.158;11.816;2023-04-25T05:57:08;7.00;98.50
4635;DHT22;2330;48.158;11.816;2023-04-25T05:59:34;7.00;98.50
4635;DHT22;2330;48.158;11.816;2023-04-25T06:02:02;7.00;98.50
4635;DHT22;2330;48.158;11.816;2023-04-25T06:04:29;7.10;98.50
4635;DHT22;2330;48.158;11.816;2023-04-25T06:06:56;7.10;98.50
4635;DHT22;2330;48.158;11.816;2023-04-25T06:09:22;7.10;98.50
4635;DHT22;2330;48.158;11.816;2023-04-25T06:11:49;7.20;98.50
4635;DHT22;2330;48.158;11.816;2023-04-25T06:14:16;7.30;98.50
4635;DHT22;2330;48.158;11.816;2023-04-25T06:16:42;7.40;98.50
4635;DHT22;2330;48.158;11.816;2023-04-25T06:19:09;7.40;98.50
4635;DHT22;2330;48.158;11.816;2023-04-25T06:21:36;7.40;98.50
4635;DHT22;2330;48.158;11.816;2023-04-25T06:24:04;7.50;98.50
4635;DHT22;2330;48.158;11.816;2023-04-25T06:26:32;7.60;98.50
4635;DHT22;2330;48.158;11.816;2023-04-25T06:28:59;7.50;98.50
4635;DHT22;2330;48.158;11.816;2023-04-25T06:31:26;7.50;98.50
4635;DHT22;2330;48.158;11.816;2023-04-25T06:33:53;7.50;98.50
4635;DHT22;2330;48.158;11.816;2023-04-25T06:36:21;7.40;98.50
4635;DHT22;2330;48.158;11.816;2023-04-25T06:38:52;7.10;98.50
4635;DHT22;2330;48.158;11.816;2023-04-25T06:41:19;6.80;98.50
4635;DHT22;2330;48.158;11.816;2023-04-25T06:43:46;6.50;98.50
4635;DHT22;2330;48.158;11.816;2023-04-25T06:46:13;6.30;98.50
4635;DHT22;2330;48.158;11.816;2023-04-25T06:48:40;6.30;98.50
4635;DHT22;2330;48.158;11.816;2023-04-25T06:51:07;6.40;98.50
4635;DHT22;2330;48.158;11.816;2023-04-25T06:53:33;6.30;98.50
4635;DHT22;2330;48.158;11.816;2023-04-25T06:56:00;6.40;98.50
4635;DHT22;2330;48.158;11.816;2023-04-25T06:58:27;6.40;98.50
4635;DHT22;2330;48.158;11.816;2023-04-25T07:00:54;6.50;98.50
4635;DHT22;2330;48.158;11.816;2023-04-25T07:03:21;6.70;98.50
4635;DHT22;2330;48.158;11.816;2023-04-25T07:05:48;6.80;98.50
4635;DHT22;2330;48.158;11.816;2023-04-25T07:08:14;7.00;98.50
4635;DHT22;2330;48.158;11.816;2023-04-25T07:10:41;7.20;98.50
4635;DHT22;2330;48.158;11.816;2023-04-25T07:13:08;7.40;98.50
4635;DHT22;2330;48.158;11.816;2023-04-25T07:15:35;7.60;98.50
4635;DHT22;2330;48.158;11.816;2023-04-25T07:18:02;7.70;98.50
4635;DHT22;2330;48.158;11.816;2023-04-25T07:20:28;7.80;98.50
4635;DHT22;2330;48.158;11.816;2023-04-25T07:22:57;7.90;98.50
4635;DHT22;2330;48.158;11.816;2023-04-25T07:25:24;7.90;98.50
4635;DHT22;2330;48.158;11.816;2023-04-25T07:27:51;8.10;98.50
4635;DHT22;2330;48.158;11.816;2023-04-25T07:30:18;8.40;98.50
4635;DHT22;2330;48.158;11.816;2023-04-25T07:32:44;8.50;98.50
4635;DHT22;2330;48.158;11.816;2023-04-25T07:35:12;8.50;98.50
4635;DHT22;2330;48.158;11.816;2023-04-25T07:37:38;8.60;98.50
4635;DHT22;2330;48.158;11.816;2023-04-25T07:40:06;8.60;98.50
4635;DHT22;2330;48.158;11.816;2023-04-25T07:42:34;8.50;98.50
4635;DHT22;2330;48.158;11.816;2023-04-25T07:45:01;8.40;98.50
4635;DHT22;2330;48.158;11.816;2023-04-25T07:47:29;8.60;98.50
4635;DHT22;2330;48.158;11.816;2023-04-25T07:49:56;8.90;98.50
4635;DHT22;2330;48.158;11.816;2023-04-25T07:52:24;8.90;98.50
4635;DHT22;2330;48.158;11.816;2023-04-25T07:54:51;8.90;98.50
4635;DHT22;2330;48.158;11.816;2023-04-25T07:57:19;8.70;98.50
4635;DHT22;2330;48.158;11.816;2023-04-25T07:59:46;8.60;98.50
4635;DHT22;2330;48.158;11.816;2023-04-25T08:02:13;8.60;98.50
4635;DHT22;2330;48.158;11.816;2023-04-25T08:04:40;8.50;98.50
4635;DHT22;2330;48.158;11.816;2023-04-25T08:07:07;8.70;98.50
4635;DHT22;2330;48.158;11.816;2023-04-25T08:09:34;9.20;98.50
4635;DHT22;2330;48.158;11.816;2023-04-25T08:12:02;9.70;98.50
4635;DHT22;2330;48.158;11.816;2023-04-25T08:14:30;10.30;98.50
4635;DHT22;2330;48.158;11.816;2023-04-25T08:17:03;10.80;98.50
4635;DHT22;2330;48.158;11.816;2023-04-25T08:19:31;11.00;98.50
4635;DHT22;2330;48.158;11.816;2023-04-25T08:21:58;11.10;98.50
4635;DHT22;2330;48.158;11.816;2023-04-25T08:24:24;11.40;98.50
4635;DHT22;2330;48.158;11.816;2023-04-25T08:26:51;11.60;98.50
4635;DHT22;2330;48.158;11.816;2023-04-25T08:29:18;11.40;98.50
4635;DHT22;2330;48.158;11.816;2023-04-25T08:31:45;11.30;98.50
4635;DHT22;2330;48.158;11.816;2023-04-25T08:34:12;11.10;98.50
4635;DHT22;2330;48.158;11.816;2023-04-25T08:36:39;11.10;98.50
4635;DHT22;2330;48.158;11.816;2023-04-25T08:39:06;11.50;98.50
4635;DHT22;2330;48.158;11.816;2023-04-25T08:41:33;11.40;98.50
4635;DHT22;2330;48.158;11.816;2023-04-25T08:44:00;11.30;98.50
4635;DHT22;2330;48.158;11.816;2023-04-25T08:46:30;11.60;98.50
4635;DHT22;2330;48.158;11.816;2023-04-25T08:49:01;11.80;97.80
4635;DHT22;2330;48.158;11.816;2023-04-25T08:51:31;11.80;96.80
4635;DHT22;2330;48.158;11.816;2023-04-25T08:54:09;11.60;97.40
4635;DHT22;2330;48.158;11.816;2023-04-25T08:56:57;12.10;98.50
4635;DHT22;2330;48.158;11.816;2023-04-25T08:59:26;12.60;97.40
4635;DHT22;2330;48.158;11.816;2023-04-25T09:01:53;12.80;95.10
4635;DHT22;2330;48.158;11.816;2023-04-25T09:04:20;12.40;96.10
4635;DHT22;2330;48.158;11.816;2023-04-25T09:06:47;12.10;95.60
4635;DHT22;2330;48.158;11.816;2023-04-25T09:09:14;11.50;98.50
4635;DHT22;2330;48.158;11.816;2023-04-25T09:11:41;11.10;98.20
4635;DHT22;2330;48.158;11.816;2023-04-25T09:14:21;10.80;98.50
4635;DHT22;2330;48.158;11.816;2023-04-25T09:22:06;10.80;98.50
4635;DHT22;2330;48.158;11.816;2023-04-25T09:24:44;11.10;96.30
4635;DHT22;2330;48.158;11.816;2023-04-25T09:27:18;11.30;94.20
4635;DHT22;2330;48.158;11.816;2023-04-25T09:29:45;11.70;94.50
4635;DHT22;2330;48.158;11.816;2023-04-25T09:32:18;12.10;93.40
4635;DHT22;2330;48.158;11.816;2023-04-25T09:34:53;12.10;92.40
4635;DHT22;2330;48.158;11.816;2023-04-25T09:37:25;12.40;93.40
4635;DHT22;2330;48.158;11.816;2023-04-25T09:39:55;12.50;89.90
4635;DHT22;2330;48.158;11.816;2023-04-25T09:42:24;12.80;91.00
4635;DHT22;2330;48.158;11.816;2023-04-25T09:44:53;13.30;90.70
4635;DHT22;2330;48.158;11.816;2023-04-25T09:47:20;13.60;87.60
4635;DHT22;2330;48.158;11.816;2023-04-25T09:49:51;13.60;86.00
4635;DHT22;2330;48.158;11.816;2023-04-25T09:52:20;14.00;88.60
4635;DHT22;2330;48.158;11.816;2023-04-25T09:54:51;13.80;87.50
4635;DHT22;2330;48.158;11.816;2023-04-25T09:57:23;13.20;88.60
4635;DHT22;2330;48.158;11.816;2023-04-25T09:59:54;12.90;91.30
4635;DHT22;2330;48.158;11.816;2023-04-25T10:02:23;12.70;91.40
4635;DHT22;2330;48.158;11.816;2023-04-25T10:04:53;12.90;91.40
4635;DHT22;2330;48.158;11.816;2023-04-25T10:07:23;13.20;90.00
4635;DHT22;2330;48.158;11.816;2023-04-25T10:09:59;13.50;91.50
4635;DHT22;2330;48.158;11.816;2023-04-25T10:12:26;13.60;88.50
4635;DHT22;2330;48.158;11.816;2023-04-25T10:14:54;13.30;86.30
4635;DHT22;2330;48.158;11.816;2023-04-25T10:17:21;13.50;89.50
4635;DHT22;2330;48.158;11.816;2023-04-25T10:19:48;13.30;88.20
4635;DHT22;2330;48.158;11.816;2023-04-25T10:22:20;13.20;87.90
4635;DHT22;2330;48.158;11.816;2023-04-25T10:24:50;13.40;87.20
4635;DHT22;2330;48.158;11.816;2023-04-25T10:27:17;13.40;84.60
4635;DHT22;2330;48.158;11.816;2023-04-25T10:29:45;13.10;86.40
4635;DHT22;2330;48.158;11.816;2023-04-25T10:32:26;13.00;85.60
4635;DHT22;2330;48.158;11.816;2023-04-25T10:34:54;12.80;83.90
4635;DHT22;2330;48.158;11.816;2023-04-25T10:37:21;12.90;85.00
4635;DHT22;2330;48.158;11.816;2023-04-25T10:39:47;12.90;84.90
4635;DHT22;2330;48.158;11.816;2023-04-25T10:42:14;13.20;89.00
4635;DHT22;2330;48.158;11.816;2023-04-25T10:45:01;13.20;86.40
4635;DHT22;2330;48.158;11.816;2023-04-25T10:47:36;13.10;86.40
4635;DHT22;2330;48.158;11.816;2023-04-25T10:50:08;12.80;85.90
4635;DHT22;2330;48.158;11.816;2023-04-25T10:52:38;12.80;86.30
4635;DHT22;2330;48.158;11.816;2023-04-25T10:55:05;12.80;87.70
4635;DHT22;2330;48.158;11.816;2023-04-25T10:57:45;13.10;87.20
4635;DHT22;2330;48.158;11.816;2023-04-25T11:00:19;13.10;84.90
4635;DHT22;2330;48.158;11.816;2023-04-25T11:02:58;13.10;85.10
4635;DHT22;2330;48.158;11.816;2023-04-25T11:05:39;12.80;85.10
4635;DHT22;2330;48.158;11.816;2023-04-25T11:08:37;12.60;88.60
4635;DHT22;2330;48.158;11.816;2023-04-25T11:11:08;12.20;90.00
4635;DHT22;2330;48.158;11.816;2023-04-25T11:13:35;11.60;93.70
4635;DHT22;2330;48.158;11.816;2023-04-25T11:16:02;11.20;92.90
4635;DHT22;2330;48.158;11.816;2023-04-25T11:18:41;10.60;94.80
4635;DHT22;2330;48.158;11.816;2023-04-25T11:21:08;10.20;97.10
4635;DHT22;2330;48.158;11.816;2023-04-25T11:23:35;10.00;98.50
4635;DHT22;2330;48.158;11.816;2023-04-25T11:26:03;9.60;98.50
4635;DHT22;2330;48.158;11.816;2023-04-25T11:28:30;9.60;98.50
4635;DHT22;2330;48.158;11.816;2023-04-25T11:30:57;9.50;98.50
4635;DHT22;2330;48.158;11.816;2023-04-25T11:33:25;9.30;98.50
4635;DHT22;2330;48.158;11.816;2023-04-25T11:35:53;9.10;98.50
4635;DHT22;2330;48.158;11.816;2023-04-25T11:38:22;9.10;98.50
4635;DHT22;2330;48.158;11.816;2023-04-25T11:40:52;8.90;98.50
4635;DHT22;2330;48.158;11.816;2023-04-25T11:43:23;8.80;98.50
4635;DHT22;2330;48.158;11.816;2023-04-25T11:45:50;8.70;98.50
4635;DHT22;2330;48.158;11.816;2023-04-25T11:48:18;8.70;98.50
4635;DHT22;2330;48.158;11.816;2023-04-25T11:50:51;8.80;98.50
4635;DHT22;2330;48.158;11.816;2023-04-25T11:53:19;8.90;98.50
4635;DHT22;2330;48.158;11.816;2023-04-25T11:55:46;8.90;98.50
4635;DHT22;2330;48.158;11.816;2023-04-25T11:58:14;8.90;98.50
4635;DHT22;2330;48.158;11.816;2023-04-25T12:00:42;9.00;98.50
4635;DHT22;2330;48.158;11.816;2023-04-25T12:03:17;9.20;98.50
4635;DHT22;2330;48.158;11.816;2023-04-25T12:05:45;9.10;98.50
4635;DHT22;2330;48.158;11.816;2023-04-25T12:08:13;9.30;98.50
4635;DHT22;2330;48.158;11.816;2023-04-25T12:10:42;9.40;98.50
4635;DHT22;2330;48.158;11.816;2023-04-25T12:13:25;9.30;98.50
4635;DHT22;2330;48.158;11.816;2023-04-25T12:15:56;9.40;98.50
4635;DHT22;2330;48.158;11.816;2023-04-25T12:18:24;9.50;98.50
4635;DHT22;2330;48.158;11.816;2023-04-25T12:20:54;9.90;98.50
4635;DHT22;2330;48.158;11.816;2023-04-25T12:23:27;10.10;98.50
4635;DHT22;2330;48.158;11.816;2023-04-25T12:25:55;10.20;98.50
4635;DHT22;2330;48.158;11.816;2023-04-25T12:28:25;9.80;98.50
4635;DHT22;2330;48.158;11.816;2023-04-25T12:30:59;9.20;98.50
4635;DHT22;2330;48.158;11.816;2023-04-25T12:33:33;8.40;98.50
4635;DHT22;2330;48.158;11.816;2023-04-25T12:36:01;8.10;98.50
4635;DHT22;2330;48.158;11.816;2023-04-25T12:39:06;8.00;98.50
4635;DHT22;2330;48.158;11.816;2023-04-25T12:41:34;8.00;98.50
4635;DHT22;2330;48.158;11.816;2023-04-25T12:44:00;7.90;98.50
4635;DHT22;2330;48.158;11.816;2023-04-25T12:46:27;7.90;98.50
4635;DHT22;2330;48.158;11.816;2023-04-25T12:48:54;7.90;98.50
4635;DHT22;2330;48.158;11.816;2023-04-25T12:51:28;7.80;98.50
4635;DHT22;2330;48.158;11.816;2023-04-25T12:53:55;7.80;98.50
4635;DHT22;2330;48.158;11.816;2023-04-25T12:56:22;7.80;98.50
4635;DHT22;2330;48.158;11.816;2023-04-25T12:58:51;7.80;98.50
4635;DHT22;2330;48.158;11.816;2023-04-25T13:01:22;7.80;98.50
4635;DHT22;2330;48.158;11.816;2023-04-25T13:03:49;7.70;98.50
4635;DHT22;2330;48.158;11.816;2023-04-25T13:06:17;7.60;98.50
4635;DHT22;2330;48.158;11.816;2023-04-25T13:08:45;7.70;98.50
4635;DHT22;2330;48.158;11.816;2023-04-25T13:11:11;7.70;98.50
4635;DHT22;2330;48.158;11.816;2023-04-25T13:13:38;7.70;98.50
4635;DHT22;2330;48.158;11.816;2023-04-25T13:16:07;7.70;98.50
4635;DHT22;2330;48.158;11.816;2023-04-25T13:18:34;7.70;98.50
4635;DHT22;2330;48.158;11.816;2023-04-25T13:21:01;7.70;98.50
4635;DHT22;2330;48.158;11.816;2023-04-25T13:23:28;7.70;98.50
4635;DHT22;2330;48.158;11.816;2023-04-25T13:25:55;7.80;98.50
4635;DHT22;2330;48.158;11.816;2023-04-25T13:28:24;7.80;98.50
4635;DHT22;2330;48.158;11.816;2023-04-25T13:30:51;7.70;98.50
4635;DHT22;2330;48.158;11.816;2023-04-25T13:33:20;7.60;98.50
4635;DHT22;2330;48.158;11.816;2023-04-25T13:35:49;7.40;98.50
4635;DHT22;2330;48.158;11.816;2023-04-25T13:38:21;7.40;98.50
4635;DHT22;2330;48.158;11.816;2023-04-25T13:40:49;7.40;98.50
4635;DHT22;2330;48.158;11.816;2023-04-25T13:43:19;7.40;98.50
4635;DHT22;2330;48.158;11.816;2023-04-25T13:45:46;7.30;98.50
4635;DHT22;2330;48.158;11.816;2023-04-25T13:48:13;7.30;98.50
4635;DHT22;2330;48.158;11.816;2023-04-25T13:50:40;7.20;98.50
4635;DHT22;2330;48.158;11.816;2023-04-25T13:53:07;7.20;98.50
4635;DHT22;2330;48.158;11.816;2023-04-25T13:55:34;7.30;98.50
4635;DHT22;2330;48.158;11.816;2023-04-25T13:58:05;7.20;98.50
4635;DHT22;2330;48.158;11.816;2023-04-25T14:00:37;7.20;98.50
4635;DHT22;2330;48.158;11.816;2023-04-25T14:03:06;7.30;98.50
4635;DHT22;2330;48.158;11.816;2023-04-25T14:05:35;7.30;98.50
4635;DHT22;2330;48.158;11.816;2023-04-25T14:08:09;7.40;98.50
4635;DHT22;2330;48.158;11.816;2023-04-25T14:10:36;7.30;98.50
4635;DHT22;2330;48.158;11.816;2023-04-25T14:13:04;7.20;98.50
4635;DHT22;2330;48.158;11.816;2023-04-25T14:15:34;7.10;98.50
4635;DHT22;2330;48.158;11.816;2023-04-25T14:18:01;7.00;98.50
4635;DHT22;2330;48.158;11.816;2023-04-25T14:20:29;7.00;98.50
4635;DHT22;2330;48.158;11.816;2023-04-25T14:22:55;7.00;98.50
4635;DHT22;2330;48.158;11.816;2023-04-25T14:25:24;7.00;98.50
4635;DHT22;2330;48.158;11.816;2023-04-25T14:27:51;7.10;98.50
4635;DHT22;2330;48.158;11.816;2023-04-25T14:30:19;7.10;98.50
4635;DHT22;2330;48.158;11.816;2023-04-25T14:32:48;7.20;98.50
4635;DHT22;2330;48.158;11.816;2023-04-25T14:35:15;7.20;98.50
4635;DHT22;2330;48.158;11.816;2023-04-25T14:37:42;7.20;98.50
4635;DHT22;2330;48.158;11.816;2023-04-25T14:40:09;7.10;98.50
4635;DHT22;2330;48.158;11.816;2023-04-25T14:42:37;7.10;98.50
4635;DHT22;2330;48.158;11.816;2023-04-25T14:45:05;7.10;98.50
4635;DHT22;2330;48.158;11.816;2023-04-25T14:47:36;7.10;98.50
4635;DHT22;2330;48.158;11.816;2023-04-25T14:50:05;7.10;98.50
4635;DHT22;2330;48.158;11.816;2023-04-25T14:52:32;7.20;98.50
4635;DHT22;2330;48.158;11.816;2023-04-25T14:54:59;7.30;98.50
4635;DHT22;2330;48.158;11.816;2023-04-25T14:57:33;7.40;98.50
4635;DHT22;2330;48.158;11.816;2023-04-25T15:00:00;7.50;98.50
4635;DHT22;2330;48.158;11.816;2023-04-25T15:02:28;7.70;98.50
4635;DHT22;2330;48.158;11.816;2023-04-25T15:04:55;7.80;98.50
4635;DHT22;2330;48.158;11.816;2023-04-25T15:07:22;7.90;98.50
4635;DHT22;2330;48.158;11.816;2023-04-25T15:09:49;8.00;98.50
4635;DHT22;2330;48.158;11.816;2023-04-25T15:12:16;8.10;98.50
4635;DHT22;2330;48.158;11.816;2023-04-25T15:14:43;7.90;98.50
4635;DHT22;2330;48.158;11.816;2023-04-25T15:17:10;7.90;98.50
4635;DHT22;2330;48.158;11.816;2023-04-25T15:19:39;7.80;98.50
4635;DHT22;2330;48.158;11.816;2023-04-25T15:22:06;7.80;98.50
4635;DHT22;2330;48.158;11.816;2023-04-25T15:24:34;7.90;98.50
4635;DHT22;2330;48.158;11.816;2023-04-25T15:27:01;8.00;98.50
4635;DHT22;2330;48.158;11.816;2023-04-25T15:29:31;8.10;98.50
4635;DHT22;2330;48.158;11.816;2023-04-25T15:31:57;8.20;98.50
4635;DHT22;2330;48.158;11.816;2023-04-25T15:34:24;8.20;98.50
4635;DHT22;2330;48.158;11.816;2023-04-25T15:36:51;8.30;98.50
4635;DHT22;2330;48.158;11.816;2023-04-25T15:39:18;8.40;98.50
4635;DHT22;2330;48.158;11.816;2023-04-25T15:41:46;8.50;98.50
4635;DHT22;2330;48.158;11.816;2023-04-25T15:44:13;8.50;98.50
4635;DHT22;2330;48.158;11.816;2023-04-25T15:46:40;8.50;98.50
4635;DHT22;2330;48.158;11.816;2023-04-25T15:49:06;8.40;98.50
4635;DHT22;2330;48.158;11.816;2023-04-25T15:51:34;8.40;98.50
4635;DHT22;2330;48.158;11.816;2023-04-25T15:54:00;8.40;98.50
4635;DHT22;2330;48.158;11.816;2023-04-25T15:56:28;8.50;98.50
4635;DHT22;2330;48.158;11.816;2023-04-25T15:58:55;8.30;98.50
4635;DHT22;2330;48.158;11.816;2023-04-25T16:01:22;8.00;98.50
4635;DHT22;2330;48.158;11.816;2023-04-25T16:03:50;8.00;98.50
4635;DHT22;2330;48.158;11.816;2023-04-25T16:06:19;7.90;98.50
4635;DHT22;2330;48.158;11.816;2023-04-25T16:08:45;7.90;98.50
4635;DHT22;2330;48.158;11.816;2023-04-25T16:11:12;8.00;98.50